sensor_id;sensor_type;location;lat;lon;timestamp;P1;durP1;ratioP1;P2;durP2;ratioP2
10463;SDS011;5279;42.048;24.638;2022-12-07T00:00:22;8.73;;;5.27;;
10463;SDS011;5279;42.048;24.638;2022-12-07T00:03:00;10.00;;;7.43;;
10463;SDS011;5279;42.048;24.638;2022-12-07T00:05:32;11.77;;;6.13;;
10463;SDS011;5279;42.048;24.638;2022-12-07T00:08:01;11.40;;;5.20;;
10463;SDS011;5279;42.048;24.638;2022-12-07T00:10:33;12.87;;;4.97;;
10463;SDS011;5279;42.048;24.638;2022-12-07T00:13:03;5.80;;;4.90;;
10463;SDS011;5279;42.048;24.638;2022-12-07T00:15:42;6.83;;;5.20;;
10463;SDS011;5279;42.048;24.638;2022-12-07T00:18:10;10.20;;;5.80;;
10463;SDS011;5279;42.048;24.638;2022-12-07T00:20:38;8.13;;;4.80;;
10463;SDS011;5279;42.048;24.638;2022-12-07T00:23:06;10.10;;;4.90;;
10463;SDS011;5279;42.048;24.638;2022-12-07T00:25:34;10.93;;;5.67;;
10463;SDS011;5279;42.048;24.638;2022-12-07T00:28:04;8.10;;;5.27;;
10463;SDS011;5279;42.048;24.638;2022-12-07T00:30:34;8.60;;;5.50;;
10463;SDS011;5279;42.048;24.638;2022-12-07T00:33:05;9.83;;;5.57;;
10463;SDS011;5279;42.048;24.638;2022-12-07T00:35:35;10.97;;;5.50;;
10463;SDS011;5279;42.048;24.638;2022-12-07T00:38:04;10.47;;;5.10;;
10463;SDS011;5279;42.048;24.638;2022-12-07T00:40:36;10.93;;;4.57;;
10463;SDS011;5279;42.048;24.638;2022-12-07T00:43:06;11.53;;;4.97;;
10463;SDS011;5279;42.048;24.638;2022-12-07T00:45:36;6.33;;;4.27;;
10463;SDS011;5279;42.048;24.638;2022-12-07T00:48:06;7.13;;;4.87;;
10463;SDS011;5279;42.048;24.638;2022-12-07T00:50:35;9.93;;;5.63;;
10463;SDS011;5279;42.048;24.638;2022-12-07T00:53:03;8.40;;;5.07;;
10463;SDS011;5279;42.048;24.638;2022-12-07T00:55:33;8.03;;;5.60;;
10463;SDS011;5279;42.048;24.638;2022-12-07T00:58:04;6.83;;;4.90;;
10463;SDS011;5279;42.048;24.638;2022-12-07T01:00:33;8.50;;;6.30;;
10463;SDS011;5279;42.048;24.638;2022-12-07T01:03:06;11.30;;;6.80;;
10463;SDS011;5279;42.048;24.638;2022-12-07T01:05:49;10.87;;;6.07;;
10463;SDS011;5279;42.048;24.638;2022-12-07T01:08:17;11.00;;;5.90;;
10463;SDS011;5279;42.048;24.638;2022-12-07T01:10:44;7.43;;;5.50;;
10463;SDS011;5279;42.048;24.638;2022-12-07T01:13:13;13.37;;;6.07;;
10463;SDS011;5279;42.048;24.638;2022-12-07T01:15:44;11.63;;;6.23;;
10463;SDS011;5279;42.048;24.638;2022-12-07T01:18:14;11.23;;;6.77;;
10463;SDS011;5279;42.048;24.638;2022-12-07T01:20:56;10.90;;;7.07;;
10463;SDS011;5279;42.048;24.638;2022-12-07T01:23:26;13.17;;;6.53;;
10463;SDS011;5279;42.048;24.638;2022-12-07T01:26:10;8.43;;;6.63;;
10463;SDS011;5279;42.048;24.638;2022-12-07T01:28:39;10.67;;;6.37;;
10463;SDS011;5279;42.048;24.638;2022-12-07T01:31:06;11.73;;;6.60;;
10463;SDS011;5279;42.048;24.638;2022-12-07T01:33:38;13.50;;;6.80;;
10463;SDS011;5279;42.048;24.638;2022-12-07T01:36:07;11.00;;;6.47;;
10463;SDS011;5279;42.048;24.638;2022-12-07T01:38:40;10.20;;;6.57;;
10463;SDS011;5279;42.048;24.638;2022-12-07T01:41:13;12.93;;;6.97;;
10463;SDS011;5279;42.048;24.638;2022-12-07T01:46:40;10.63;;;6.53;;
10463;SDS011;5279;42.048;24.638;2022-12-07T01:49:16;9.10;;;7.13;;
10463;SDS011;5279;42.048;24.638;2022-12-07T01:51:55;13.57;;;7.00;;
10463;SDS011;5279;42.048;24.638;2022-12-07T01:54:31;9.60;;;6.50;;
10463;SDS011;5279;42.048;24.638;2022-12-07T01:57:00;11.57;;;7.53;;
10463;SDS011;5279;42.048;24.638;2022-12-07T01:59:29;12.50;;;8.00;;
10463;SDS011;5279;42.048;24.638;2022-12-07T02:01:56;15.47;;;8.10;;
10463;SDS011;5279;42.048;24.638;2022-12-07T02:04:32;11.30;;;7.07;;
10463;SDS011;5279;42.048;24.638;2022-12-07T02:07:00;11.50;;;7.03;;
10463;SDS011;5279;42.048;24.638;2022-12-07T02:09:29;11.30;;;7.30;;
10463;SDS011;5279;42.048;24.638;2022-12-07T02:11:58;10.13;;;6.87;;
10463;SDS011;5279;42.048;24.638;2022-12-07T02:14:27;10.90;;;7.37;;
10463;SDS011;5279;42.048;24.638;2022-12-07T02:16:59;11.57;;;8.17;;
10463;SDS011;5279;42.048;24.638;2022-12-07T02:29:04;10.63;;;7.50;;
10463;SDS011;5279;42.048;24.638;2022-12-07T02:31:45;11.30;;;7.67;;
10463;SDS011;5279;42.048;24.638;2022-12-07T02:34:19;17.10;;;8.00;;
10463;SDS011;5279;42.048;24.638;2022-12-07T02:36:55;11.30;;;7.97;;
10463;SDS011;5279;42.048;24.638;2022-12-07T02:39:28;11.37;;;6.43;;
10463;SDS011;5279;42.048;24.638;2022-12-07T02:42:07;10.10;;;6.47;;
10463;SDS011;5279;42.048;24.638;2022-12-07T02:44:40;12.13;;;7.30;;
10463;SDS011;5279;42.048;24.638;2022-12-07T02:47:23;8.07;;;6.77;;
10463;SDS011;5279;42.048;24.638;2022-12-07T02:49:53;13.23;;;8.80;;
10463;SDS011;5279;42.048;24.638;2022-12-07T02:52:23;11.57;;;8.30;;
10463;SDS011;5279;42.048;24.638;2022-12-07T02:54:51;15.67;;;8.23;;
10463;SDS011;5279;42.048;24.638;2022-12-07T02:57:25;12.00;;;7.80;;
10463;SDS011;5279;42.048;24.638;2022-12-07T03:00:14;10.60;;;6.43;;
10463;SDS011;5279;42.048;24.638;2022-12-07T03:02:50;10.03;;;6.73;;
10463;SDS011;5279;42.048;24.638;2022-12-07T03:08:21;10.97;;;6.47;;
10463;SDS011;5279;42.048;24.638;2022-12-07T03:10:56;12.70;;;6.63;;
10463;SDS011;5279;42.048;24.638;2022-12-07T03:13:30;10.27;;;6.37;;
10463;SDS011;5279;42.048;24.638;2022-12-07T03:16:19;10.53;;;6.33;;
10463;SDS011;5279;42.048;24.638;2022-12-07T03:18:51;13.57;;;6.53;;
10463;SDS011;5279;42.048;24.638;2022-12-07T03:21:23;12.47;;;7.00;;
10463;SDS011;5279;42.048;24.638;2022-12-07T03:23:58;9.63;;;6.80;;
10463;SDS011;5279;42.048;24.638;2022-12-07T03:26:31;12.67;;;6.87;;
10463;SDS011;5279;42.048;24.638;2022-12-07T03:29:07;11.13;;;6.37;;
10463;SDS011;5279;42.048;24.638;2022-12-07T03:31:48;8.87;;;5.80;;
10463;SDS011;5279;42.048;24.638;2022-12-07T03:34:24;10.47;;;6.80;;
10463;SDS011;5279;42.048;24.638;2022-12-07T03:37:02;10.23;;;6.33;;
10463;SDS011;5279;42.048;24.638;2022-12-07T03:39:34;12.10;;;6.63;;
10463;SDS011;5279;42.048;24.638;2022-12-07T03:42:07;9.43;;;5.90;;
10463;SDS011;5279;42.048;24.638;2022-12-07T03:44:39;9.13;;;6.43;;
10463;SDS011;5279;42.048;24.638;2022-12-07T03:47:13;10.60;;;6.07;;
10463;SDS011;5279;42.048;24.638;2022-12-07T03:49:49;11.70;;;5.80;;
10463;SDS011;5279;42.048;24.638;2022-12-07T03:52:23;10.73;;;6.23;;
10463;SDS011;5279;42.048;24.638;2022-12-07T03:54:57;9.97;;;5.97;;
10463;SDS011;5279;42.048;24.638;2022-12-07T03:57:30;9.93;;;6.60;;
10463;SDS011;5279;42.048;24.638;2022-12-07T04:00:03;9.20;;;6.33;;
10463;SDS011;5279;42.048;24.638;2022-12-07T04:02:36;12.03;;;6.43;;
10463;SDS011;5279;42.048;24.638;2022-12-07T04:05:05;13.37;;;7.37;;
10463;SDS011;5279;42.048;24.638;2022-12-07T04:07:36;10.83;;;7.03;;
10463;SDS011;5279;42.048;24.638;2022-12-07T04:10:04;9.40;;;5.80;;
10463;SDS011;5279;42.048;24.638;2022-12-07T04:12:44;9.57;;;5.70;;
10463;SDS011;5279;42.048;24.638;2022-12-07T04:15:14;10.43;;;5.77;;
10463;SDS011;5279;42.048;24.638;2022-12-07T04:17:46;7.43;;;5.40;;
10463;SDS011;5279;42.048;24.638;2022-12-07T04:20:15;8.20;;;5.63;;
10463;SDS011;5279;42.048;24.638;2022-12-07T04:22:50;10.73;;;6.70;;
10463;SDS011;5279;42.048;24.638;2022-12-07T04:25:19;8.97;;;6.60;;
10463;SDS011;5279;42.048;24.638;2022-12-07T04:27:47;8.27;;;5.90;;
10463;SDS011;5279;42.048;24.638;2022-12-07T04:30:15;10.17;;;5.80;;
10463;SDS011;5279;42.048;24.638;2022-12-07T04:32:42;8.70;;;5.80;;
10463;SDS011;5279;42.048;24.638;2022-12-07T04:35:15;8.33;;;6.17;;
10463;SDS011;5279;42.048;24.638;2022-12-07T04:37:42;11.07;;;6.70;;
10463;SDS011;5279;42.048;24.638;2022-12-07T04:40:13;9.37;;;5.90;;
10463;SDS011;5279;42.048;24.638;2022-12-07T04:42:41;8.93;;;6.27;;
10463;SDS011;5279;42.048;24.638;2022-12-07T04:45:12;11.47;;;6.07;;
10463;SDS011;5279;42.048;24.638;2022-12-07T04:47:41;10.27;;;6.40;;
10463;SDS011;5279;42.048;24.638;2022-12-07T04:50:12;9.50;;;5.83;;
10463;SDS011;5279;42.048;24.638;2022-12-07T04:52:41;10.27;;;6.03;;
10463;SDS011;5279;42.048;24.638;2022-12-07T04:55:17;8.63;;;5.53;;
10463;SDS011;5279;42.048;24.638;2022-12-07T04:57:57;8.40;;;6.10;;
10463;SDS011;5279;42.048;24.638;2022-12-07T05:00:25;10.17;;;6.23;;
10463;SDS011;5279;42.048;24.638;2022-12-07T05:02:53;11.17;;;6.53;;
10463;SDS011;5279;42.048;24.638;2022-12-07T05:05:27;10.57;;;5.57;;
10463;SDS011;5279;42.048;24.638;2022-12-07T05:07:59;9.47;;;6.20;;
10463;SDS011;5279;42.048;24.638;2022-12-07T05:10:27;12.70;;;5.97;;
10463;SDS011;5279;42.048;24.638;2022-12-07T05:12:56;9.33;;;6.17;;
10463;SDS011;5279;42.048;24.638;2022-12-07T05:15:26;8.97;;;5.83;;
10463;SDS011;5279;42.048;24.638;2022-12-07T05:17:54;13.33;;;6.43;;
10463;SDS011;5279;42.048;24.638;2022-12-07T05:20:22;7.73;;;6.13;;
10463;SDS011;5279;42.048;24.638;2022-12-07T05:22:52;11.27;;;6.30;;
10463;SDS011;5279;42.048;24.638;2022-12-07T05:28:26;10.50;;;6.37;;
10463;SDS011;5279;42.048;24.638;2022-12-07T05:30:57;9.40;;;6.03;;
10463;SDS011;5279;42.048;24.638;2022-12-07T05:33:26;8.67;;;6.67;;
10463;SDS011;5279;42.048;24.638;2022-12-07T05:35:54;9.33;;;6.17;;
10463;SDS011;5279;42.048;24.638;2022-12-07T05:38:39;7.57;;;5.37;;
10463;SDS011;5279;42.048;24.638;2022-12-07T05:41:08;7.80;;;6.03;;
10463;SDS011;5279;42.048;24.638;2022-12-07T05:43:59;12.63;;;6.33;;
10463;SDS011;5279;42.048;24.638;2022-12-07T05:46:27;8.70;;;6.10;;
10463;SDS011;5279;42.048;24.638;2022-12-07T05:48:58;10.73;;;6.07;;
10463;SDS011;5279;42.048;24.638;2022-12-07T05:51:28;9.60;;;6.47;;
10463;SDS011;5279;42.048;24.638;2022-12-07T05:54:02;11.27;;;6.53;;
10463;SDS011;5279;42.048;24.638;2022-12-07T05:56:32;12.33;;;6.77;;
10463;SDS011;5279;42.048;24.638;2022-12-07T05:59:02;13.23;;;6.60;;
10463;SDS011;5279;42.048;24.638;2022-12-07T06:01:54;11.67;;;6.97;;
10463;SDS011;5279;42.048;24.638;2022-12-07T06:04:25;9.60;;;6.40;;
10463;SDS011;5279;42.048;24.638;2022-12-07T06:06:56;8.67;;;6.13;;
10463;SDS011;5279;42.048;24.638;2022-12-07T06:09:28;10.63;;;6.57;;
10463;SDS011;5279;42.048;24.638;2022-12-07T06:11:57;11.83;;;6.60;;
10463;SDS011;5279;42.048;24.638;2022-12-07T06:14:52;8.90;;;5.60;;
10463;SDS011;5279;42.048;24.638;2022-12-07T06:17:21;7.87;;;5.50;;
10463;SDS011;5279;42.048;24.638;2022-12-07T06:19:50;9.57;;;5.73;;
10463;SDS011;5279;42.048;24.638;2022-12-07T06:22:20;7.80;;;5.57;;
10463;SDS011;5279;42.048;24.638;2022-12-07T06:24:50;9.07;;;5.70;;
10463;SDS011;5279;42.048;24.638;2022-12-07T06:27:19;9.37;;;6.23;;
10463;SDS011;5279;42.048;24.638;2022-12-07T06:29:47;12.70;;;6.93;;
10463;SDS011;5279;42.048;24.638;2022-12-07T06:32:16;7.57;;;6.23;;
10463;SDS011;5279;42.048;24.638;2022-12-07T06:34:46;10.43;;;6.60;;
10463;SDS011;5279;42.048;24.638;2022-12-07T06:37:14;10.77;;;6.80;;
10463;SDS011;5279;42.048;24.638;2022-12-07T06:39:43;14.47;;;6.37;;
10463;SDS011;5279;42.048;24.638;2022-12-07T06:42:16;10.73;;;6.57;;
10463;SDS011;5279;42.048;24.638;2022-12-07T06:44:49;15.37;;;7.10;;
10463;SDS011;5279;42.048;24.638;2022-12-07T06:47:17;11.03;;;6.03;;
10463;SDS011;5279;42.048;24.638;2022-12-07T06:49:46;10.20;;;6.50;;
10463;SDS011;5279;42.048;24.638;2022-12-07T06:52:15;9.67;;;6.47;;
10463;SDS011;5279;42.048;24.638;2022-12-07T06:54:44;9.87;;;6.77;;
10463;SDS011;5279;42.048;24.638;2022-12-07T06:57:12;11.30;;;6.33;;
10463;SDS011;5279;42.048;24.638;2022-12-07T06:59:43;8.47;;;6.23;;
10463;SDS011;5279;42.048;24.638;2022-12-07T07:02:12;7.60;;;5.67;;
10463;SDS011;5279;42.048;24.638;2022-12-07T07:04:43;7.80;;;5.03;;
10463;SDS011;5279;42.048;24.638;2022-12-07T07:07:12;6.67;;;5.10;;
10463;SDS011;5279;42.048;24.638;2022-12-07T07:09:41;9.83;;;5.13;;
10463;SDS011;5279;42.048;24.638;2022-12-07T07:12:16;6.47;;;4.83;;
10463;SDS011;5279;42.048;24.638;2022-12-07T07:14:44;6.67;;;4.57;;
10463;SDS011;5279;42.048;24.638;2022-12-07T07:17:13;7.30;;;4.13;;
10463;SDS011;5279;42.048;24.638;2022-12-07T07:19:48;6.03;;;4.87;;
10463;SDS011;5279;42.048;24.638;2022-12-07T07:22:17;9.27;;;6.10;;
10463;SDS011;5279;42.048;24.638;2022-12-07T07:24:50;8.97;;;6.47;;
10463;SDS011;5279;42.048;24.638;2022-12-07T07:27:21;8.53;;;6.07;;
10463;SDS011;5279;42.048;24.638;2022-12-07T07:29:49;5.07;;;4.57;;
10463;SDS011;5279;42.048;24.638;2022-12-07T07:32:17;7.90;;;5.17;;
10463;SDS011;5279;42.048;24.638;2022-12-07T07:34:47;7.60;;;5.13;;
10463;SDS011;5279;42.048;24.638;2022-12-07T07:37:14;9.73;;;5.20;;
10463;SDS011;5279;42.048;24.638;2022-12-07T07:39:43;5.50;;;4.73;;
10463;SDS011;5279;42.048;24.638;2022-12-07T07:42:11;7.40;;;4.73;;
10463;SDS011;5279;42.048;24.638;2022-12-07T07:44:44;6.97;;;4.40;;
10463;SDS011;5279;42.048;24.638;2022-12-07T07:47:19;7.30;;;5.40;;
10463;SDS011;5279;42.048;24.638;2022-12-07T07:49:47;8.27;;;5.53;;
10463;SDS011;5279;42.048;24.638;2022-12-07T07:52:15;9.83;;;5.10;;
10463;SDS011;5279;42.048;24.638;2022-12-07T07:54:44;8.13;;;5.23;;
10463;SDS011;5279;42.048;24.638;2022-12-07T07:57:12;11.77;;;6.03;;
10463;SDS011;5279;42.048;24.638;2022-12-07T07:59:45;8.53;;;5.97;;
10463;SDS011;5279;42.048;24.638;2022-12-07T08:02:14;11.90;;;6.50;;
10463;SDS011;5279;42.048;24.638;2022-12-07T08:04:43;12.27;;;7.03;;
10463;SDS011;5279;42.048;24.638;2022-12-07T08:07:17;13.17;;;7.50;;
10463;SDS011;5279;42.048;24.638;2022-12-07T08:09:53;8.90;;;6.90;;
10463;SDS011;5279;42.048;24.638;2022-12-07T08:12:24;10.37;;;7.20;;
10463;SDS011;5279;42.048;24.638;2022-12-07T08:14:53;11.13;;;7.80;;
10463;SDS011;5279;42.048;24.638;2022-12-07T08:17:25;10.50;;;7.33;;
10463;SDS011;5279;42.048;24.638;2022-12-07T08:19:54;12.40;;;8.57;;
10463;SDS011;5279;42.048;24.638;2022-12-07T08:22:23;12.83;;;8.57;;
10463;SDS011;5279;42.048;24.638;2022-12-07T08:24:52;11.20;;;8.13;;
10463;SDS011;5279;42.048;24.638;2022-12-07T08:27:20;10.50;;;8.57;;
10463;SDS011;5279;42.048;24.638;2022-12-07T08:29:54;13.70;;;9.97;;
10463;SDS011;5279;42.048;24.638;2022-12-07T08:32:23;14.47;;;9.27;;
10463;SDS011;5279;42.048;24.638;2022-12-07T08:34:52;15.93;;;11.37;;
10463;SDS011;5279;42.048;24.638;2022-12-07T08:37:20;19.27;;;11.97;;
10463;SDS011;5279;42.048;24.638;2022-12-07T08:39:53;17.67;;;12.83;;
10463;SDS011;5279;42.048;24.638;2022-12-07T08:42:22;15.53;;;11.67;;
10463;SDS011;5279;42.048;24.638;2022-12-07T08:45:09;15.77;;;12.43;;
10463;SDS011;5279;42.048;24.638;2022-12-07T08:47:40;17.47;;;13.40;;
10463;SDS011;5279;42.048;24.638;2022-12-07T08:50:15;23.13;;;14.83;;
10463;SDS011;5279;42.048;24.638;2022-12-07T08:52:44;21.03;;;14.47;;
10463;SDS011;5279;42.048;24.638;2022-12-07T08:55:18;23.73;;;14.47;;
10463;SDS011;5279;42.048;24.638;2022-12-07T08:57:47;21.03;;;15.80;;
10463;SDS011;5279;42.048;24.638;2022-12-07T09:00:17;24.27;;;15.27;;
10463;SDS011;5279;42.048;24.638;2022-12-07T09:02:46;23.40;;;14.93;;
10463;SDS011;5279;42.048;24.638;2022-12-07T09:05:14;17.97;;;14.70;;
10463;SDS011;5279;42.048;24.638;2022-12-07T09:07:43;24.70;;;15.43;;
10463;SDS011;5279;42.048;24.638;2022-12-07T09:10:15;20.03;;;14.30;;
10463;SDS011;5279;42.048;24.638;2022-12-07T09:12:43;21.23;;;15.03;;
10463;SDS011;5279;42.048;24.638;2022-12-07T09:15:11;18.30;;;13.70;;
10463;SDS011;5279;42.048;24.638;2022-12-07T09:17:42;19.97;;;14.83;;
10463;SDS011;5279;42.048;24.638;2022-12-07T09:20:10;18.70;;;14.80;;
10463;SDS011;5279;42.048;24.638;2022-12-07T09:22:39;22.80;;;15.90;;
10463;SDS011;5279;42.048;24.638;2022-12-07T09:25:08;19.80;;;15.97;;
10463;SDS011;5279;42.048;24.638;2022-12-07T09:27:52;21.80;;;15.97;;
10463;SDS011;5279;42.048;24.638;2022-12-07T09:30:23;23.03;;;16.43;;
10463;SDS011;5279;42.048;24.638;2022-12-07T09:32:54;24.50;;;16.00;;
10463;SDS011;5279;42.048;24.638;2022-12-07T09:35:31;23.57;;;17.10;;
10463;SDS011;5279;42.048;24.638;2022-12-07T09:38:09;22.40;;;16.67;;
10463;SDS011;5279;42.048;24.638;2022-12-07T09:40:36;19.43;;;16.63;;
10463;SDS011;5279;42.048;24.638;2022-12-07T09:43:05;18.87;;;15.97;;
10463;SDS011;5279;42.048;24.638;2022-12-07T09:45:39;21.40;;;15.67;;
10463;SDS011;5279;42.048;24.638;2022-12-07T09:48:14;24.77;;;16.43;;
10463;SDS011;5279;42.048;24.638;2022-12-07T09:50:45;23.27;;;15.73;;
10463;SDS011;5279;42.048;24.638;2022-12-07T09:53:18;20.33;;;17.70;;
10463;SDS011;5279;42.048;24.638;2022-12-07T09:55:51;22.50;;;15.47;;
10463;SDS011;5279;42.048;24.638;2022-12-07T09:58:20;20.77;;;16.87;;
10463;SDS011;5279;42.048;24.638;2022-12-07T10:00:52;20.97;;;16.03;;
10463;SDS011;5279;42.048;24.638;2022-12-07T10:03:25;20.70;;;16.00;;
10463;SDS011;5279;42.048;24.638;2022-12-07T10:05:54;18.43;;;15.77;;
10463;SDS011;5279;42.048;24.638;2022-12-07T10:08:24;20.93;;;16.43;;
10463;SDS011;5279;42.048;24.638;2022-12-07T10:10:56;22.57;;;15.57;;
10463;SDS011;5279;42.048;24.638;2022-12-07T10:13:34;21.00;;;15.07;;
10463;SDS011;5279;42.048;24.638;2022-12-07T10:16:04;19.07;;;15.17;;
10463;SDS011;5279;42.048;24.638;2022-12-07T10:18:35;18.50;;;14.90;;
10463;SDS011;5279;42.048;24.638;2022-12-07T10:21:11;20.23;;;15.60;;
10463;SDS011;5279;42.048;24.638;2022-12-07T10:23:41;23.17;;;16.57;;
10463;SDS011;5279;42.048;24.638;2022-12-07T10:26:26;25.53;;;17.57;;
10463;SDS011;5279;42.048;24.638;2022-12-07T10:28:59;22.17;;;16.70;;
10463;SDS011;5279;42.048;24.638;2022-12-07T10:31:28;21.80;;;17.33;;
10463;SDS011;5279;42.048;24.638;2022-12-07T10:33:58;20.43;;;16.77;;
10463;SDS011;5279;42.048;24.638;2022-12-07T10:36:29;23.13;;;16.60;;
10463;SDS011;5279;42.048;24.638;2022-12-07T10:39:03;24.67;;;16.30;;
10463;SDS011;5279;42.048;24.638;2022-12-07T10:41:52;18.00;;;15.63;;
10463;SDS011;5279;42.048;24.638;2022-12-07T10:44:22;20.37;;;15.87;;
10463;SDS011;5279;42.048;24.638;2022-12-07T10:47:05;22.77;;;16.13;;
10463;SDS011;5279;42.048;24.638;2022-12-07T10:49:55;18.77;;;15.07;;
10463;SDS011;5279;42.048;24.638;2022-12-07T10:52:42;21.07;;;16.23;;
10463;SDS011;5279;42.048;24.638;2022-12-07T10:55:39;18.87;;;15.40;;
10463;SDS011;5279;42.048;24.638;2022-12-07T10:58:30;19.57;;;15.13;;
10463;SDS011;5279;42.048;24.638;2022-12-07T11:01:10;22.00;;;15.60;;
10463;SDS011;5279;42.048;24.638;2022-12-07T11:06:42;21.03;;;15.23;;
10463;SDS011;5279;42.048;24.638;2022-12-07T11:09:24;21.37;;;16.53;;
10463;SDS011;5279;42.048;24.638;2022-12-07T11:12:19;20.67;;;15.73;;
10463;SDS011;5279;42.048;24.638;2022-12-07T11:14:56;19.50;;;15.00;;
10463;SDS011;5279;42.048;24.638;2022-12-07T11:17:31;20.50;;;14.17;;
10463;SDS011;5279;42.048;24.638;2022-12-07T11:20:12;18.77;;;14.77;;
10463;SDS011;5279;42.048;24.638;2022-12-07T11:22:55;18.90;;;14.80;;
10463;SDS011;5279;42.048;24.638;2022-12-07T11:25:31;23.50;;;14.70;;
10463;SDS011;5279;42.048;24.638;2022-12-07T11:28:10;21.13;;;14.40;;
10463;SDS011;5279;42.048;24.638;2022-12-07T11:30:49;18.77;;;15.00;;
10463;SDS011;5279;42.048;24.638;2022-12-07T11:33:26;24.93;;;16.03;;
10463;SDS011;5279;42.048;24.638;2022-12-07T11:36:04;21.30;;;15.30;;
10463;SDS011;5279;42.048;24.638;2022-12-07T11:38:46;22.40;;;14.43;;
10463;SDS011;5279;42.048;24.638;2022-12-07T11:41:17;22.53;;;14.60;;
10463;SDS011;5279;42.048;24.638;2022-12-07T11:43:53;22.43;;;16.00;;
10463;SDS011;5279;42.048;24.638;2022-12-07T11:46:26;20.97;;;15.40;;
10463;SDS011;5279;42.048;24.638;2022-12-07T11:49:08;20.05;;;15.20;;
10463;SDS011;5279;42.048;24.638;2022-12-07T11:51:40;22.67;;;16.10;;
10463;SDS011;5279;42.048;24.638;2022-12-07T11:54:14;23.50;;;15.10;;
10463;SDS011;5279;42.048;24.638;2022-12-07T11:56:47;19.97;;;14.13;;
10463;SDS011;5279;42.048;24.638;2022-12-07T11:59:18;25.80;;;14.97;;
10463;SDS011;5279;42.048;24.638;2022-12-07T12:01:52;20.73;;;14.90;;
10463;SDS011;5279;42.048;24.638;2022-12-07T12:04:34;22.27;;;13.93;;
10463;SDS011;5279;42.048;24.638;2022-12-07T12:07:17;22.73;;;15.50;;
10463;SDS011;5279;42.048;24.638;2022-12-07T12:09:50;21.80;;;14.90;;
10463;SDS011;5279;42.048;24.638;2022-12-07T12:15:46;22.17;;;14.23;;
10463;SDS011;5279;42.048;24.638;2022-12-07T12:21:34;28.37;;;16.37;;
10463;SDS011;5279;42.048;24.638;2022-12-07T12:24:06;23.97;;;15.33;;
10463;SDS011;5279;42.048;24.638;2022-12-07T12:26:47;21.20;;;14.23;;
10463;SDS011;5279;42.048;24.638;2022-12-07T12:29:21;21.97;;;14.40;;
10463;SDS011;5279;42.048;24.638;2022-12-07T12:32:07;24.10;;;13.97;;
10463;SDS011;5279;42.048;24.638;2022-12-07T12:34:41;19.93;;;13.83;;
10463;SDS011;5279;42.048;24.638;2022-12-07T12:55:47;24.40;;;14.63;;
10463;SDS011;5279;42.048;24.638;2022-12-07T12:59:21;26.00;;;15.10;;
10463;SDS011;5279;42.048;24.638;2022-12-07T13:02:00;25.40;;;15.70;;
10463;SDS011;5279;42.048;24.638;2022-12-07T13:04:53;22.50;;;15.13;;
10463;SDS011;5279;42.048;24.638;2022-12-07T13:10:36;25.33;;;15.07;;
10463;SDS011;5279;42.048;24.638;2022-12-07T13:13:30;20.87;;;13.87;;
10463;SDS011;5279;42.048;24.638;2022-12-07T13:22:39;23.77;;;14.47;;
10463;SDS011;5279;42.048;24.638;2022-12-07T13:25:12;20.20;;;14.07;;
10463;SDS011;5279;42.048;24.638;2022-12-07T13:27:48;24.10;;;15.17;;
10463;SDS011;5279;42.048;24.638;2022-12-07T13:30:22;24.27;;;13.97;;
10463;SDS011;5279;42.048;24.638;2022-12-07T13:32:56;24.17;;;15.33;;
10463;SDS011;5279;42.048;24.638;2022-12-07T13:35:34;30.83;;;20.77;;
10463;SDS011;5279;42.048;24.638;2022-12-07T13:38:04;31.87;;;21.13;;
10463;SDS011;5279;42.048;24.638;2022-12-07T13:40:42;21.17;;;15.77;;
10463;SDS011;5279;42.048;24.638;2022-12-07T13:43:42;25.87;;;15.60;;
10463;SDS011;5279;42.048;24.638;2022-12-07T13:46:32;26.73;;;15.80;;
10463;SDS011;5279;42.048;24.638;2022-12-07T13:49:24;25.20;;;16.27;;
10463;SDS011;5279;42.048;24.638;2022-12-07T13:51:54;26.47;;;15.67;;
10463;SDS011;5279;42.048;24.638;2022-12-07T13:54:33;28.20;;;15.50;;
10463;SDS011;5279;42.048;24.638;2022-12-07T13:57:12;23.30;;;15.03;;
10463;SDS011;5279;42.048;24.638;2022-12-07T13:59:40;22.70;;;15.57;;
10463;SDS011;5279;42.048;24.638;2022-12-07T14:02:17;25.20;;;15.17;;
10463;SDS011;5279;42.048;24.638;2022-12-07T14:04:49;20.30;;;14.80;;
10463;SDS011;5279;42.048;24.638;2022-12-07T14:07:19;24.37;;;14.87;;
10463;SDS011;5279;42.048;24.638;2022-12-07T14:09:56;23.67;;;15.20;;
10463;SDS011;5279;42.048;24.638;2022-12-07T14:12:24;25.03;;;15.07;;
10463;SDS011;5279;42.048;24.638;2022-12-07T14:14:54;23.47;;;15.67;;
10463;SDS011;5279;42.048;24.638;2022-12-07T14:17:23;27.70;;;16.63;;
10463;SDS011;5279;42.048;24.638;2022-12-07T14:19:54;22.23;;;14.93;;
10463;SDS011;5279;42.048;24.638;2022-12-07T14:22:26;22.63;;;15.07;;
10463;SDS011;5279;42.048;24.638;2022-12-07T14:27:49;22.43;;;15.47;;
10463;SDS011;5279;42.048;24.638;2022-12-07T14:30:22;22.60;;;14.73;;
10463;SDS011;5279;42.048;24.638;2022-12-07T14:32:51;23.33;;;14.77;;
10463;SDS011;5279;42.048;24.638;2022-12-07T14:35:23;26.90;;;15.60;;
10463;SDS011;5279;42.048;24.638;2022-12-07T14:37:55;21.10;;;14.40;;
10463;SDS011;5279;42.048;24.638;2022-12-07T14:40:23;23.90;;;16.00;;
10463;SDS011;5279;42.048;24.638;2022-12-07T14:42:53;22.90;;;14.83;;
10463;SDS011;5279;42.048;24.638;2022-12-07T14:45:24;20.67;;;13.97;;
10463;SDS011;5279;42.048;24.638;2022-12-07T14:47:53;19.07;;;12.90;;
10463;SDS011;5279;42.048;24.638;2022-12-07T14:50:23;20.13;;;14.40;;
10463;SDS011;5279;42.048;24.638;2022-12-07T14:52:56;22.57;;;14.17;;
10463;SDS011;5279;42.048;24.638;2022-12-07T14:55:28;22.50;;;14.47;;
10463;SDS011;5279;42.048;24.638;2022-12-07T14:57:57;26.70;;;15.83;;
10463;SDS011;5279;42.048;24.638;2022-12-07T15:00:27;21.87;;;14.90;;
10463;SDS011;5279;42.048;24.638;2022-12-07T15:02:55;24.70;;;14.70;;
10463;SDS011;5279;42.048;24.638;2022-12-07T15:08:49;20.47;;;14.23;;
10463;SDS011;5279;42.048;24.638;2022-12-07T15:11:17;26.93;;;18.70;;
10463;SDS011;5279;42.048;24.638;2022-12-07T15:13:46;30.53;;;19.67;;
10463;SDS011;5279;42.048;24.638;2022-12-07T15:16:30;25.83;;;16.03;;
10463;SDS011;5279;42.048;24.638;2022-12-07T15:18:59;24.93;;;14.77;;
10463;SDS011;5279;42.048;24.638;2022-12-07T15:21:27;22.30;;;16.37;;
10463;SDS011;5279;42.048;24.638;2022-12-07T15:23:58;25.63;;;17.30;;
10463;SDS011;5279;42.048;24.638;2022-12-07T15:26:27;25.07;;;16.10;;
10463;SDS011;5279;42.048;24.638;2022-12-07T15:28:56;22.23;;;16.13;;
10463;SDS011;5279;42.048;24.638;2022-12-07T15:31:25;24.70;;;16.33;;
10463;SDS011;5279;42.048;24.638;2022-12-07T15:33:55;28.70;;;18.10;;
10463;SDS011;5279;42.048;24.638;2022-12-07T15:36:24;24.23;;;16.60;;
10463;SDS011;5279;42.048;24.638;2022-12-07T15:38:53;28.20;;;15.33;;
10463;SDS011;5279;42.048;24.638;2022-12-07T15:41:22;28.03;;;15.13;;
10463;SDS011;5279;42.048;24.638;2022-12-07T15:43:50;21.73;;;14.70;;
10463;SDS011;5279;42.048;24.638;2022-12-07T15:46:36;25.00;;;15.47;;
10463;SDS011;5279;42.048;24.638;2022-12-07T15:49:06;22.67;;;15.50;;
10463;SDS011;5279;42.048;24.638;2022-12-07T15:51:42;22.27;;;14.70;;
10463;SDS011;5279;42.048;24.638;2022-12-07T15:54:12;24.80;;;15.80;;
10463;SDS011;5279;42.048;24.638;2022-12-07T15:56:46;24.63;;;16.87;;
10463;SDS011;5279;42.048;24.638;2022-12-07T15:59:15;26.20;;;15.90;;
10463;SDS011;5279;42.048;24.638;2022-12-07T16:01:45;24.97;;;16.57;;
10463;SDS011;5279;42.048;24.638;2022-12-07T16:04:13;24.50;;;16.07;;
10463;SDS011;5279;42.048;24.638;2022-12-07T16:06:47;28.63;;;17.50;;